sensor_id;sensor_type;location;lat;lon;timestamp;P1;durP1;ratioP1;P2;durP2;ratioP2
70301;SDS011;57706;56.326;43.882;2023-09-12T00:02:24;11.25;;;7.40;;
70301;SDS011;57706;56.326;43.882;2023-09-12T00:04:50;13.27;;;7.72;;
70301;SDS011;57706;56.326;43.882;2023-09-12T00:07:16;11.70;;;7.22;;
70301;SDS011;57706;56.326;43.882;2023-09-12T00:09:42;14.02;;;7.10;;
70301;SDS011;57706;56.326;43.882;2023-09-12T00:12:08;12.48;;;7.20;;
70301;SDS011;57706;56.326;43.882;2023-09-12T00:14:33;10.00;;;6.70;;
70301;SDS011;57706;56.326;43.882;2023-09-12T00:16:59;11.63;;;7.28;;
70301;SDS011;57706;56.326;43.882;2023-09-12T00:19:25;13.60;;;7.57;;
70301;SDS011;57706;56.326;43.882;2023-09-12T00:21:51;12.48;;;7.18;;
70301;SDS011;57706;56.326;43.882;2023-09-12T00:24:18;13.48;;;7.50;;
70301;SDS011;57706;56.326;43.882;2023-09-12T00:26:44;12.95;;;7.72;;
70301;SDS011;57706;56.326;43.882;2023-09-12T00:29:10;13.20;;;7.80;;
70301;SDS011;57706;56.326;43.882;2023-09-12T00:31:36;11.90;;;7.43;;
70301;SDS011;57706;56.326;43.882;2023-09-12T00:34:02;14.80;;;7.40;;
70301;SDS011;57706;56.326;43.882;2023-09-12T00:36:28;10.20;;;6.93;;
70301;SDS011;57706;56.326;43.882;2023-09-12T00:38:54;19.23;;;7.72;;
70301;SDS011;57706;56.326;43.882;2023-09-12T00:41:19;11.48;;;7.10;;
70301;SDS011;57706;56.326;43.882;2023-09-12T00:43:45;12.27;;;8.40;;
70301;SDS011;57706;56.326;43.882;2023-09-12T00:46:12;18.10;;;7.85;;
70301;SDS011;57706;56.326;43.882;2023-09-12T00:48:43;12.23;;;7.68;;
70301;SDS011;57706;56.326;43.882;2023-09-12T00:51:10;11.98;;;8.15;;
70301;SDS011;57706;56.326;43.882;2023-09-12T00:53:37;13.05;;;7.25;;
70301;SDS011;57706;56.326;43.882;2023-09-12T00:56:03;12.90;;;7.55;;
70301;SDS011;57706;56.326;43.882;2023-09-12T00:58:29;14.85;;;7.15;;
70301;SDS011;57706;56.326;43.882;2023-09-12T01:00:56;12.77;;;7.35;;
70301;SDS011;57706;56.326;43.882;2023-09-12T01:03:22;14.45;;;7.13;;
70301;SDS011;57706;56.326;43.882;2023-09-12T01:05:48;13.20;;;6.78;;
70301;SDS011;57706;56.326;43.882;2023-09-12T01:08:14;12.95;;;7.50;;
70301;SDS011;57706;56.326;43.882;2023-09-12T01:10:40;11.10;;;6.95;;
70301;SDS011;57706;56.326;43.882;2023-09-12T01:13:12;11.35;;;6.50;;
70301;SDS011;57706;56.326;43.882;2023-09-12T01:15:40;12.38;;;7.07;;
70301;SDS011;57706;56.326;43.882;2023-09-12T01:18:07;13.98;;;7.47;;
70301;SDS011;57706;56.326;43.882;2023-09-12T01:20:34;13.63;;;7.20;;
70301;SDS011;57706;56.326;43.882;2023-09-12T01:28:31;12.52;;;7.35;;
70301;SDS011;57706;56.326;43.882;2023-09-12T01:31:01;12.27;;;7.13;;
70301;SDS011;57706;56.326;43.882;2023-09-12T01:33:29;13.50;;;7.75;;
70301;SDS011;57706;56.326;43.882;2023-09-12T01:35:55;13.85;;;7.63;;
70301;SDS011;57706;56.326;43.882;2023-09-12T01:38:21;14.07;;;7.93;;
70301;SDS011;57706;56.326;43.882;2023-09-12T01:40:48;11.10;;;7.15;;
70301;SDS011;57706;56.326;43.882;2023-09-12T01:43:21;13.00;;;7.38;;
70301;SDS011;57706;56.326;43.882;2023-09-12T01:45:49;14.35;;;7.20;;
70301;SDS011;57706;56.326;43.882;2023-09-12T01:48:22;10.98;;;6.90;;
70301;SDS011;57706;56.326;43.882;2023-09-12T01:50:52;13.93;;;7.63;;
70301;SDS011;57706;56.326;43.882;2023-09-12T01:53:18;12.95;;;7.75;;
70301;SDS011;57706;56.326;43.882;2023-09-12T01:55:45;14.98;;;8.23;;
70301;SDS011;57706;56.326;43.882;2023-09-12T01:58:13;15.15;;;7.53;;
70301;SDS011;57706;56.326;43.882;2023-09-12T02:00:39;16.98;;;7.65;;
70301;SDS011;57706;56.326;43.882;2023-09-12T02:03:05;12.63;;;7.50;;
70301;SDS011;57706;56.326;43.882;2023-09-12T02:05:31;11.07;;;7.03;;
70301;SDS011;57706;56.326;43.882;2023-09-12T02:07:57;12.00;;;7.50;;
70301;SDS011;57706;56.326;43.882;2023-09-12T02:10:28;17.48;;;7.00;;
70301;SDS011;57706;56.326;43.882;2023-09-12T02:12:54;12.05;;;7.57;;
70301;SDS011;57706;56.326;43.882;2023-09-12T02:15:20;12.15;;;7.40;;
70301;SDS011;57706;56.326;43.882;2023-09-12T02:17:46;14.25;;;7.70;;
70301;SDS011;57706;56.326;43.882;2023-09-12T02:20:37;11.88;;;7.72;;
70301;SDS011;57706;56.326;43.882;2023-09-12T02:23:06;13.25;;;7.43;;
70301;SDS011;57706;56.326;43.882;2023-09-12T02:25:32;10.50;;;7.00;;
70301;SDS011;57706;56.326;43.882;2023-09-12T02:27:57;13.02;;;7.72;;
70301;SDS011;57706;56.326;43.882;2023-09-12T02:30:23;14.18;;;7.57;;
70301;SDS011;57706;56.326;43.882;2023-09-12T02:32:49;12.57;;;6.97;;
70301;SDS011;57706;56.326;43.882;2023-09-12T02:35:15;16.17;;;7.72;;
70301;SDS011;57706;56.326;43.882;2023-09-12T02:37:41;10.93;;;7.00;;
70301;SDS011;57706;56.326;43.882;2023-09-12T02:40:06;15.20;;;7.32;;
70301;SDS011;57706;56.326;43.882;2023-09-12T02:42:36;19.42;;;7.75;;
70301;SDS011;57706;56.326;43.882;2023-09-12T02:45:02;14.77;;;8.15;;
70301;SDS011;57706;56.326;43.882;2023-09-12T02:47:31;14.45;;;8.63;;
70301;SDS011;57706;56.326;43.882;2023-09-12T02:49:57;12.77;;;8.68;;
70301;SDS011;57706;56.326;43.882;2023-09-12T02:52:23;11.63;;;7.07;;
70301;SDS011;57706;56.326;43.882;2023-09-12T02:54:49;11.68;;;7.47;;
70301;SDS011;57706;56.326;43.882;2023-09-12T02:57:15;11.05;;;7.10;;
70301;SDS011;57706;56.326;43.882;2023-09-12T02:59:42;13.27;;;7.60;;
70301;SDS011;57706;56.326;43.882;2023-09-12T03:02:08;10.63;;;7.57;;
70301;SDS011;57706;56.326;43.882;2023-09-12T03:04:35;11.98;;;7.53;;
70301;SDS011;57706;56.326;43.882;2023-09-12T03:07:02;15.77;;;8.25;;
70301;SDS011;57706;56.326;43.882;2023-09-12T03:09:27;15.73;;;7.50;;
70301;SDS011;57706;56.326;43.882;2023-09-12T03:11:53;11.88;;;7.78;;
70301;SDS011;57706;56.326;43.882;2023-09-12T03:14:19;18.63;;;8.02;;
70301;SDS011;57706;56.326;43.882;2023-09-12T03:16:45;12.60;;;8.15;;
70301;SDS011;57706;56.326;43.882;2023-09-12T03:19:12;13.80;;;7.20;;
70301;SDS011;57706;56.326;43.882;2023-09-12T03:21:38;15.35;;;7.57;;
70301;SDS011;57706;56.326;43.882;2023-09-12T03:24:04;15.45;;;7.75;;
70301;SDS011;57706;56.326;43.882;2023-09-12T03:26:30;13.68;;;7.53;;
70301;SDS011;57706;56.326;43.882;2023-09-12T03:28:59;15.63;;;7.65;;
70301;SDS011;57706;56.326;43.882;2023-09-12T03:31:25;17.10;;;7.70;;
70301;SDS011;57706;56.326;43.882;2023-09-12T03:33:51;14.07;;;8.10;;
70301;SDS011;57706;56.326;43.882;2023-09-12T03:36:18;13.77;;;8.25;;
70301;SDS011;57706;56.326;43.882;2023-09-12T03:38:44;12.07;;;8.43;;
70301;SDS011;57706;56.326;43.882;2023-09-12T03:41:11;14.98;;;7.57;;
70301;SDS011;57706;56.326;43.882;2023-09-12T03:43:37;16.33;;;7.40;;
70301;SDS011;57706;56.326;43.882;2023-09-12T03:46:04;10.50;;;7.05;;
70301;SDS011;57706;56.326;43.882;2023-09-12T03:48:30;10.35;;;7.07;;
70301;SDS011;57706;56.326;43.882;2023-09-12T03:50:57;10.85;;;6.80;;
70301;SDS011;57706;56.326;43.882;2023-09-12T03:53:23;9.80;;;6.60;;
70301;SDS011;57706;56.326;43.882;2023-09-12T03:55:49;10.48;;;6.90;;
70301;SDS011;57706;56.326;43.882;2023-09-12T03:58:15;14.27;;;7.18;;
70301;SDS011;57706;56.326;43.882;2023-09-12T04:00:41;8.80;;;6.47;;
70301;SDS011;57706;56.326;43.882;2023-09-12T04:03:07;10.02;;;6.53;;
70301;SDS011;57706;56.326;43.882;2023-09-12T04:05:33;9.48;;;6.97;;
70301;SDS011;57706;56.326;43.882;2023-09-12T04:07:58;9.82;;;6.30;;
70301;SDS011;57706;56.326;43.882;2023-09-12T04:10:24;9.98;;;6.38;;
70301;SDS011;57706;56.326;43.882;2023-09-12T04:12:50;12.02;;;6.70;;
70301;SDS011;57706;56.326;43.882;2023-09-12T04:15:16;9.07;;;6.50;;
70301;SDS011;57706;56.326;43.882;2023-09-12T04:17:42;15.80;;;6.68;;
70301;SDS011;57706;56.326;43.882;2023-09-12T04:20:08;14.05;;;7.03;;
70301;SDS011;57706;56.326;43.882;2023-09-12T04:22:34;9.35;;;6.88;;
70301;SDS011;57706;56.326;43.882;2023-09-12T04:25:00;8.63;;;6.38;;
70301;SDS011;57706;56.326;43.882;2023-09-12T04:27:29;12.27;;;7.70;;
70301;SDS011;57706;56.326;43.882;2023-09-12T04:29:54;9.05;;;6.63;;
70301;SDS011;57706;56.326;43.882;2023-09-12T04:32:20;10.93;;;6.22;;
70301;SDS011;57706;56.326;43.882;2023-09-12T04:34:49;13.80;;;6.18;;
70301;SDS011;57706;56.326;43.882;2023-09-12T04:37:16;9.50;;;6.25;;
70301;SDS011;57706;56.326;43.882;2023-09-12T04:39:42;10.88;;;6.72;;
70301;SDS011;57706;56.326;43.882;2023-09-12T04:42:08;14.18;;;6.57;;
70301;SDS011;57706;56.326;43.882;2023-09-12T04:44:34;11.85;;;6.38;;
70301;SDS011;57706;56.326;43.882;2023-09-12T04:47:02;12.50;;;6.63;;
70301;SDS011;57706;56.326;43.882;2023-09-12T04:49:28;10.55;;;6.97;;
70301;SDS011;57706;56.326;43.882;2023-09-12T04:51:54;13.85;;;7.75;;
70301;SDS011;57706;56.326;43.882;2023-09-12T04:54:19;10.40;;;6.18;;
70301;SDS011;57706;56.326;43.882;2023-09-12T04:56:45;9.88;;;7.00;;
70301;SDS011;57706;56.326;43.882;2023-09-12T04:59:11;10.65;;;6.20;;
70301;SDS011;57706;56.326;43.882;2023-09-12T05:01:37;12.32;;;6.82;;
70301;SDS011;57706;56.326;43.882;2023-09-12T05:04:03;11.80;;;6.60;;
70301;SDS011;57706;56.326;43.882;2023-09-12T05:06:29;12.48;;;6.72;;
70301;SDS011;57706;56.326;43.882;2023-09-12T05:08:55;8.25;;;5.80;;
70301;SDS011;57706;56.326;43.882;2023-09-12T05:11:23;9.57;;;5.80;;
70301;SDS011;57706;56.326;43.882;2023-09-12T05:13:49;14.02;;;6.28;;
70301;SDS011;57706;56.326;43.882;2023-09-12T05:16:16;8.07;;;6.00;;
70301;SDS011;57706;56.326;43.882;2023-09-12T05:18:42;8.63;;;6.68;;
70301;SDS011;57706;56.326;43.882;2023-09-12T05:21:07;11.27;;;7.47;;
70301;SDS011;57706;56.326;43.882;2023-09-12T05:23:33;8.10;;;6.30;;
70301;SDS011;57706;56.326;43.882;2023-09-12T05:25:59;9.73;;;6.30;;
70301;SDS011;57706;56.326;43.882;2023-09-12T05:28:25;12.30;;;7.00;;
70301;SDS011;57706;56.326;43.882;2023-09-12T05:30:52;13.48;;;6.60;;
70301;SDS011;57706;56.326;43.882;2023-09-12T05:33:18;11.65;;;7.07;;
70301;SDS011;57706;56.326;43.882;2023-09-12T05:35:44;10.10;;;6.70;;
70301;SDS011;57706;56.326;43.882;2023-09-12T05:38:10;10.52;;;7.05;;
70301;SDS011;57706;56.326;43.882;2023-09-12T05:40:36;9.98;;;7.40;;
70301;SDS011;57706;56.326;43.882;2023-09-12T05:43:03;14.55;;;8.07;;
70301;SDS011;57706;56.326;43.882;2023-09-12T05:45:28;10.40;;;7.72;;
70301;SDS011;57706;56.326;43.882;2023-09-12T05:47:58;14.10;;;8.70;;
70301;SDS011;57706;56.326;43.882;2023-09-12T05:50:25;15.05;;;7.95;;
70301;SDS011;57706;56.326;43.882;2023-09-12T05:52:51;13.43;;;8.20;;
70301;SDS011;57706;56.326;43.882;2023-09-12T05:55:17;16.50;;;8.18;;
70301;SDS011;57706;56.326;43.882;2023-09-12T05:57:44;18.75;;;7.70;;
70301;SDS011;57706;56.326;43.882;2023-09-12T06:00:11;17.63;;;8.02;;
70301;SDS011;57706;56.326;43.882;2023-09-12T06:02:41;11.70;;;7.63;;
70301;SDS011;57706;56.326;43.882;2023-09-12T06:05:08;17.05;;;8.43;;
70301;SDS011;57706;56.326;43.882;2023-09-12T06:07:34;14.38;;;7.97;;
70301;SDS011;57706;56.326;43.882;2023-09-12T06:10:01;10.75;;;7.70;;
70301;SDS011;57706;56.326;43.882;2023-09-12T06:12:30;13.60;;;8.15;;
70301;SDS011;57706;56.326;43.882;2023-09-12T06:14:59;13.25;;;10.52;;
70301;SDS011;57706;56.326;43.882;2023-09-12T06:17:25;14.55;;;11.32;;
70301;SDS011;57706;56.326;43.882;2023-09-12T06:19:51;13.55;;;10.90;;
70301;SDS011;57706;56.326;43.882;2023-09-12T06:22:17;12.63;;;9.85;;
70301;SDS011;57706;56.326;43.882;2023-09-12T06:24:43;15.18;;;9.65;;
70301;SDS011;57706;56.326;43.882;2023-09-12T06:27:09;14.52;;;9.88;;
70301;SDS011;57706;56.326;43.882;2023-09-12T06:29:38;12.07;;;8.80;;
70301;SDS011;57706;56.326;43.882;2023-09-12T06:32:03;11.48;;;8.43;;
70301;SDS011;57706;56.326;43.882;2023-09-12T06:34:29;9.93;;;6.65;;
70301;SDS011;57706;56.326;43.882;2023-09-12T06:36:55;10.65;;;7.15;;
70301;SDS011;57706;56.326;43.882;2023-09-12T06:39:21;11.15;;;7.15;;
70301;SDS011;57706;56.326;43.882;2023-09-12T06:41:49;11.10;;;7.25;;
70301;SDS011;57706;56.326;43.882;2023-09-12T06:44:15;11.70;;;7.20;;
70301;SDS011;57706;56.326;43.882;2023-09-12T06:46:41;10.70;;;6.28;;
70301;SDS011;57706;56.326;43.882;2023-09-12T06:49:07;13.93;;;7.25;;
70301;SDS011;57706;56.326;43.882;2023-09-12T06:51:33;25.75;;;7.25;;
70301;SDS011;57706;56.326;43.882;2023-09-12T06:53:59;13.70;;;6.28;;
70301;SDS011;57706;56.326;43.882;2023-09-12T06:56:25;10.32;;;5.75;;
70301;SDS011;57706;56.326;43.882;2023-09-12T06:58:51;9.18;;;5.57;;
70301;SDS011;57706;56.326;43.882;2023-09-12T07:01:18;16.95;;;6.00;;
70301;SDS011;57706;56.326;43.882;2023-09-12T07:03:44;10.60;;;5.88;;
70301;SDS011;57706;56.326;43.882;2023-09-12T07:06:10;10.45;;;5.80;;
70301;SDS011;57706;56.326;43.882;2023-09-12T07:08:36;10.55;;;5.38;;
70301;SDS011;57706;56.326;43.882;2023-09-12T07:11:02;8.85;;;6.00;;
70301;SDS011;57706;56.326;43.882;2023-09-12T07:13:32;7.28;;;5.25;;
70301;SDS011;57706;56.326;43.882;2023-09-12T07:15:58;15.13;;;5.13;;
70301;SDS011;57706;56.326;43.882;2023-09-12T07:18:24;9.25;;;5.07;;
70301;SDS011;57706;56.326;43.882;2023-09-12T07:21:00;9.35;;;5.05;;
70301;SDS011;57706;56.326;43.882;2023-09-12T07:23:28;14.52;;;5.50;;
70301;SDS011;57706;56.326;43.882;2023-09-12T07:25:54;8.88;;;5.47;;
70301;SDS011;57706;56.326;43.882;2023-09-12T07:28:25;9.93;;;4.97;;
70301;SDS011;57706;56.326;43.882;2023-09-12T07:30:52;7.65;;;4.63;;
70301;SDS011;57706;56.326;43.882;2023-09-12T07:33:18;7.07;;;4.30;;
70301;SDS011;57706;56.326;43.882;2023-09-12T07:35:45;6.07;;;4.90;;
70301;SDS011;57706;56.326;43.882;2023-09-12T07:38:12;7.50;;;4.53;;
70301;SDS011;57706;56.326;43.882;2023-09-12T07:40:41;7.70;;;4.13;;
70301;SDS011;57706;56.326;43.882;2023-09-12T07:43:08;9.10;;;4.80;;
70301;SDS011;57706;56.326;43.882;2023-09-12T07:45:35;7.78;;;4.88;;
70301;SDS011;57706;56.326;43.882;2023-09-12T07:48:07;10.68;;;4.53;;
70301;SDS011;57706;56.326;43.882;2023-09-12T07:50:34;7.63;;;4.70;;
70301;SDS011;57706;56.326;43.882;2023-09-12T07:53:00;5.13;;;3.83;;
70301;SDS011;57706;56.326;43.882;2023-09-12T07:55:26;8.43;;;4.55;;
70301;SDS011;57706;56.326;43.882;2023-09-12T07:57:55;7.82;;;4.53;;
70301;SDS011;57706;56.326;43.882;2023-09-12T08:00:21;5.68;;;5.07;;
70301;SDS011;57706;56.326;43.882;2023-09-12T08:02:47;8.68;;;4.60;;
70301;SDS011;57706;56.326;43.882;2023-09-12T08:05:13;15.88;;;4.95;;
70301;SDS011;57706;56.326;43.882;2023-09-12T08:07:40;8.85;;;4.90;;
70301;SDS011;57706;56.326;43.882;2023-09-12T08:10:06;9.00;;;4.65;;
70301;SDS011;57706;56.326;43.882;2023-09-12T08:12:32;7.85;;;4.88;;
70301;SDS011;57706;56.326;43.882;2023-09-12T08:14:58;9.55;;;5.20;;
70301;SDS011;57706;56.326;43.882;2023-09-12T08:17:25;7.57;;;5.45;;
70301;SDS011;57706;56.326;43.882;2023-09-12T08:19:52;6.68;;;5.03;;
70301;SDS011;57706;56.326;43.882;2023-09-12T08:22:17;9.05;;;5.55;;
70301;SDS011;57706;56.326;43.882;2023-09-12T08:24:44;8.55;;;4.90;;
70301;SDS011;57706;56.326;43.882;2023-09-12T08:27:10;8.65;;;5.15;;
70301;SDS011;57706;56.326;43.882;2023-09-12T08:29:36;11.45;;;5.40;;
70301;SDS011;57706;56.326;43.882;2023-09-12T08:32:02;19.75;;;5.20;;
70301;SDS011;57706;56.326;43.882;2023-09-12T08:34:28;9.10;;;4.95;;
70301;SDS011;57706;56.326;43.882;2023-09-12T08:36:54;10.70;;;4.78;;
70301;SDS011;57706;56.326;43.882;2023-09-12T08:39:23;10.45;;;4.55;;
70301;SDS011;57706;56.326;43.882;2023-09-12T08:41:51;9.30;;;4.32;;
70301;SDS011;57706;56.326;43.882;2023-09-12T08:44:17;7.60;;;4.18;;
70301;SDS011;57706;56.326;43.882;2023-09-12T08:46:44;6.15;;;3.90;;
70301;SDS011;57706;56.326;43.882;2023-09-12T08:49:10;8.52;;;4.20;;
70301;SDS011;57706;56.326;43.882;2023-09-12T08:51:37;7.50;;;4.10;;
70301;SDS011;57706;56.326;43.882;2023-09-12T08:54:05;7.60;;;3.97;;
70301;SDS011;57706;56.326;43.882;2023-09-12T08:56:35;7.07;;;3.95;;
70301;SDS011;57706;56.326;43.882;2023-09-12T08:59:04;5.88;;;3.78;;
70301;SDS011;57706;56.326;43.882;2023-09-12T09:01:30;5.13;;;3.65;;
70301;SDS011;57706;56.326;43.882;2023-09-12T09:03:56;7.00;;;3.70;;
70301;SDS011;57706;56.326;43.882;2023-09-12T09:06:23;5.85;;;3.97;;
70301;SDS011;57706;56.326;43.882;2023-09-12T09:08:50;8.35;;;3.42;;
70301;SDS011;57706;56.326;43.882;2023-09-12T09:11:16;5.03;;;3.33;;
70301;SDS011;57706;56.326;43.882;2023-09-12T09:13:42;4.88;;;3.45;;
70301;SDS011;57706;56.326;43.882;2023-09-12T09:16:09;5.47;;;3.60;;
70301;SDS011;57706;56.326;43.882;2023-09-12T09:18:51;6.00;;;3.10;;
70301;SDS011;57706;56.326;43.882;2023-09-12T09:21:22;9.15;;;3.80;;
70301;SDS011;57706;56.326;43.882;2023-09-12T09:23:53;33.58;;;4.35;;
70301;SDS011;57706;56.326;43.882;2023-09-12T09:26:19;4.72;;;3.05;;
70301;SDS011;57706;56.326;43.882;2023-09-12T09:28:45;3.35;;;2.85;;
70301;SDS011;57706;56.326;43.882;2023-09-12T09:31:26;7.75;;;3.42;;
70301;SDS011;57706;56.326;43.882;2023-09-12T09:33:52;4.65;;;3.10;;
70301;SDS011;57706;56.326;43.882;2023-09-12T09:36:18;4.97;;;3.00;;
70301;SDS011;57706;56.326;43.882;2023-09-12T09:38:43;6.13;;;3.33;;
70301;SDS011;57706;56.326;43.882;2023-09-12T09:41:09;7.05;;;3.20;;
70301;SDS011;57706;56.326;43.882;2023-09-12T09:43:35;3.65;;;3.15;;
70301;SDS011;57706;56.326;43.882;2023-09-12T09:46:02;2.65;;;2.45;;
70301;SDS011;57706;56.326;43.882;2023-09-12T09:48:28;5.50;;;3.15;;
70301;SDS011;57706;56.326;43.882;2023-09-12T09:51:00;6.40;;;2.70;;
70301;SDS011;57706;56.326;43.882;2023-09-12T09:53:31;3.67;;;3.20;;
70301;SDS011;57706;56.326;43.882;2023-09-12T09:58:33;3.97;;;3.15;;
70301;SDS011;57706;56.326;43.882;2023-09-12T10:00:59;4.40;;;3.13;;
70301;SDS011;57706;56.326;43.882;2023-09-12T10:03:28;6.60;;;3.20;;
70301;SDS011;57706;56.326;43.882;2023-09-12T10:05:57;5.03;;;3.53;;
70301;SDS011;57706;56.326;43.882;2023-09-12T10:08:27;6.22;;;2.78;;
70301;SDS011;57706;56.326;43.882;2023-09-12T10:10:54;7.15;;;3.17;;
70301;SDS011;57706;56.326;43.882;2023-09-12T10:13:20;5.28;;;2.78;;
70301;SDS011;57706;56.326;43.882;2023-09-12T10:15:47;3.53;;;2.95;;
70301;SDS011;57706;56.326;43.882;2023-09-12T10:18:16;2.97;;;2.42;;
70301;SDS011;57706;56.326;43.882;2023-09-12T10:20:49;2.92;;;2.17;;
70301;SDS011;57706;56.326;43.882;2023-09-12T10:25:56;3.58;;;2.60;;
70301;SDS011;57706;56.326;43.882;2023-09-12T10:28:23;6.63;;;2.67;;
70301;SDS011;57706;56.326;43.882;2023-09-12T10:30:50;4.20;;;2.63;;
70301;SDS011;57706;56.326;43.882;2023-09-12T10:33:18;6.18;;;3.13;;
70301;SDS011;57706;56.326;43.882;2023-09-12T10:35:44;3.70;;;2.83;;
70301;SDS011;57706;56.326;43.882;2023-09-12T10:38:11;4.80;;;2.80;;
70301;SDS011;57706;56.326;43.882;2023-09-12T10:40:39;2.63;;;2.42;;
70301;SDS011;57706;56.326;43.882;2023-09-12T10:43:06;9.27;;;3.08;;
70301;SDS011;57706;56.326;43.882;2023-09-12T10:45:35;2.67;;;2.47;;
70301;SDS011;57706;56.326;43.882;2023-09-12T10:48:02;4.63;;;2.40;;
70301;SDS011;57706;56.326;43.882;2023-09-12T10:50:29;4.00;;;2.78;;
70301;SDS011;57706;56.326;43.882;2023-09-12T10:52:56;3.08;;;2.78;;
70301;SDS011;57706;56.326;43.882;2023-09-12T10:55:32;2.58;;;2.38;;
70301;SDS011;57706;56.326;43.882;2023-09-12T10:58:05;7.50;;;2.35;;
70301;SDS011;57706;56.326;43.882;2023-09-12T11:00:33;3.47;;;2.80;;
70301;SDS011;57706;56.326;43.882;2023-09-12T11:03:35;3.55;;;2.60;;
70301;SDS011;57706;56.326;43.882;2023-09-12T11:05:58;2.83;;;2.20;;
70301;SDS011;57706;56.326;43.882;2023-09-12T11:08:27;4.40;;;2.45;;
70301;SDS011;57706;56.326;43.882;2023-09-12T11:13:44;5.30;;;2.83;;
70301;SDS011;57706;56.326;43.882;2023-09-12T11:16:14;3.17;;;2.33;;
70301;SDS011;57706;56.326;43.882;2023-09-12T11:19:29;4.97;;;2.53;;
70301;SDS011;57706;56.326;43.882;2023-09-12T11:21:49;5.45;;;2.85;;
70301;SDS011;57706;56.326;43.882;2023-09-12T11:24:16;3.70;;;2.47;;
70301;SDS011;57706;56.326;43.882;2023-09-12T11:27:02;2.78;;;2.35;;
70301;SDS011;57706;56.326;43.882;2023-09-12T11:29:37;3.10;;;2.40;;
70301;SDS011;57706;56.326;43.882;2023-09-12T11:32:05;7.63;;;2.55;;
70301;SDS011;57706;56.326;43.882;2023-09-12T11:34:42;2.95;;;2.05;;
70301;SDS011;57706;56.326;43.882;2023-09-12T11:37:10;3.60;;;1.80;;
70301;SDS011;57706;56.326;43.882;2023-09-12T11:39:47;6.53;;;2.08;;
70301;SDS011;57706;56.326;43.882;2023-09-12T11:42:15;4.18;;;2.33;;
70301;SDS011;57706;56.326;43.882;2023-09-12T11:44:41;5.82;;;2.53;;
70301;SDS011;57706;56.326;43.882;2023-09-12T11:47:10;4.93;;;2.28;;
70301;SDS011;57706;56.326;43.882;2023-09-12T11:49:41;3.65;;;2.58;;
70301;SDS011;57706;56.326;43.882;2023-09-12T11:52:08;4.00;;;2.35;;
70301;SDS011;57706;56.326;43.882;2023-09-12T11:54:36;2.38;;;2.05;;
70301;SDS011;57706;56.326;43.882;2023-09-12T11:57:03;3.85;;;2.15;;
70301;SDS011;57706;56.326;43.882;2023-09-12T11:59:29;4.97;;;2.30;;
70301;SDS011;57706;56.326;43.882;2023-09-12T12:01:55;4.90;;;2.20;;
70301;SDS011;57706;56.326;43.882;2023-09-12T12:04:22;5.25;;;2.20;;
70301;SDS011;57706;56.326;43.882;2023-09-12T12:06:49;4.53;;;2.13;;
70301;SDS011;57706;56.326;43.882;2023-09-12T12:09:16;4.03;;;2.40;;
70301;SDS011;57706;56.326;43.882;2023-09-12T12:11:46;7.97;;;2.65;;
70301;SDS011;57706;56.326;43.882;2023-09-12T12:14:16;4.90;;;2.50;;
70301;SDS011;57706;56.326;43.882;2023-09-12T12:16:47;3.05;;;2.33;;
70301;SDS011;57706;56.326;43.882;2023-09-12T12:19:13;5.18;;;2.45;;
70301;SDS011;57706;56.326;43.882;2023-09-12T12:21:40;5.75;;;2.70;;
70301;SDS011;57706;56.326;43.882;2023-09-12T12:24:07;3.25;;;2.70;;
70301;SDS011;57706;56.326;43.882;2023-09-12T12:26:37;4.70;;;2.20;;
70301;SDS011;57706;56.326;43.882;2023-09-12T12:29:05;3.53;;;2.97;;
70301;SDS011;57706;56.326;43.882;2023-09-12T12:31:31;3.83;;;2.65;;
70301;SDS011;57706;56.326;43.882;2023-09-12T12:33:57;2.90;;;2.38;;
70301;SDS011;57706;56.326;43.882;2023-09-12T12:36:25;3.55;;;2.50;;
70301;SDS011;57706;56.326;43.882;2023-09-12T12:38:51;8.05;;;2.72;;
70301;SDS011;57706;56.326;43.882;2023-09-12T12:41:21;9.70;;;2.78;;
70301;SDS011;57706;56.326;43.882;2023-09-12T12:43:58;9.52;;;3.15;;
70301;SDS011;57706;56.326;43.882;2023-09-12T12:46:28;3.92;;;2.63;;
70301;SDS011;57706;56.326;43.882;2023-09-12T12:48:54;3.53;;;3.22;;
70301;SDS011;57706;56.326;43.882;2023-09-12T12:51:24;3.17;;;2.88;;
70301;SDS011;57706;56.326;43.882;2023-09-12T12:53:52;15.15;;;6.65;;
70301;SDS011;57706;56.326;43.882;2023-09-12T12:56:23;12.25;;;4.20;;
70301;SDS011;57706;56.326;43.882;2023-09-12T12:58:56;13.30;;;4.75;;
70301;SDS011;57706;56.326;43.882;2023-09-12T13:01:24;10.63;;;4.40;;
70301;SDS011;57706;56.326;43.882;2023-09-12T13:03:50;5.00;;;3.03;;
70301;SDS011;57706;56.326;43.882;2023-09-12T13:06:17;4.18;;;3.10;;
70301;SDS011;57706;56.326;43.882;2023-09-12T13:08:44;5.85;;;3.25;;
70301;SDS011;57706;56.326;43.882;2023-09-12T13:11:12;6.45;;;3.65;;
70301;SDS011;57706;56.326;43.882;2023-09-12T13:13:39;6.72;;;3.60;;
70301;SDS011;57706;56.326;43.882;2023-09-12T13:16:06;3.97;;;2.78;;
70301;SDS011;57706;56.326;43.882;2023-09-12T13:18:38;14.73;;;6.07;;
70301;SDS011;57706;56.326;43.882;2023-09-12T13:21:05;4.60;;;2.65;;
70301;SDS011;57706;56.326;43.882;2023-09-12T13:23:33;4.55;;;2.60;;
70301;SDS011;57706;56.326;43.882;2023-09-12T13:26:01;4.72;;;2.85;;
70301;SDS011;57706;56.326;43.882;2023-09-12T13:28:26;5.97;;;3.30;;
70301;SDS011;57706;56.326;43.882;2023-09-12T13:30:52;5.22;;;3.65;;
70301;SDS011;57706;56.326;43.882;2023-09-12T13:33:18;16.67;;;5.07;;
70301;SDS011;57706;56.326;43.882;2023-09-12T13:35:45;8.48;;;3.40;;
70301;SDS011;57706;56.326;43.882;2023-09-12T13:38:12;5.85;;;3.08;;
70301;SDS011;57706;56.326;43.882;2023-09-12T13:40:38;9.90;;;3.10;;
70301;SDS011;57706;56.326;43.882;2023-09-12T13:43:05;25.85;;;8.02;;
70301;SDS011;57706;56.326;43.882;2023-09-12T13:45:32;6.03;;;2.88;;
70301;SDS011;57706;56.326;43.882;2023-09-12T13:47:59;5.05;;;2.40;;
70301;SDS011;57706;56.326;43.882;2023-09-12T13:50:25;6.10;;;3.45;;
70301;SDS011;57706;56.326;43.882;2023-09-12T13:52:58;5.45;;;3.47;;
70301;SDS011;57706;56.326;43.882;2023-09-12T13:55:25;9.90;;;4.72;;
70301;SDS011;57706;56.326;43.882;2023-09-12T13:57:52;5.25;;;3.72;;
70301;SDS011;57706;56.326;43.882;2023-09-12T14:00:18;8.50;;;4.30;;
70301;SDS011;57706;56.326;43.882;2023-09-12T14:02:44;4.50;;;3.33;;
70301;SDS011;57706;56.326;43.882;2023-09-12T14:05:14;10.63;;;4.53;;
70301;SDS011;57706;56.326;43.882;2023-09-12T14:07:40;7.15;;;4.82;;
70301;SDS011;57706;56.326;43.882;2023-09-12T14:10:06;4.95;;;3.50;;
70301;SDS011;57706;56.326;43.882;2023-09-12T14:12:33;7.18;;;3.75;;
70301;SDS011;57706;56.326;43.882;2023-09-12T14:15:00;9.40;;;3.53;;
70301;SDS011;57706;56.326;43.882;2023-09-12T14:17:29;7.60;;;3.95;;
70301;SDS011;57706;56.326;43.882;2023-09-12T14:19:55;4.45;;;3.70;;
70301;SDS011;57706;56.326;43.882;2023-09-12T14:22:21;5.43;;;3.75;;
70301;SDS011;57706;56.326;43.882;2023-09-12T14:24:47;6.72;;;3.90;;
70301;SDS011;57706;56.326;43.882;2023-09-12T14:27:13;17.08;;;7.18;;
70301;SDS011;57706;56.326;43.882;2023-09-12T14:29:39;9.65;;;4.70;;
70301;SDS011;57706;56.326;43.882;2023-09-12T14:32:04;9.25;;;4.88;;
70301;SDS011;57706;56.326;43.882;2023-09-12T14:34:30;7.60;;;4.00;;
70301;SDS011;57706;56.326;43.882;2023-09-12T14:37:05;5.40;;;3.53;;
70301;SDS011;57706;56.326;43.882;2023-09-12T14:39:31;7.88;;;3.70;;
70301;SDS011;57706;56.326;43.882;2023-09-12T14:41:57;12.30;;;3.33;;
70301;SDS011;57706;56.326;43.882;2023-09-12T14:44:26;10.80;;;4.22;;